createdAt,value
2022-12-23T00:02:07.869Z,6.00
2022-12-23T00:04:35.811Z,6.10
2022-12-23T00:07:04.952Z,6.10
2022-12-23T00:09:32.775Z,6.10
2022-12-23T00:12:18.228Z,6.10
2022-12-23T00:15:03.381Z,6.10
2022-12-23T00:17:31.326Z,6.00
2022-12-23T00:19:59.146Z,5.80
2022-12-23T00:22:42.409Z,5.80
2022-12-23T00:25:10.745Z,5.90
2022-12-23T00:27:38.690Z,6.00
2022-12-23T00:30:08.101Z,6.00
2022-12-23T00:32:36.158Z,5.90
2022-12-23T00:35:03.987Z,5.90
2022-12-23T00:37:33.235Z,5.90
2022-12-23T00:40:18.432Z,5.80
2022-12-23T00:42:54.902Z,5.80
2022-12-23T00:45:22.742Z,5.70
2022-12-23T00:48:07.983Z,5.60
2022-12-23T00:50:36.741Z,5.60
2022-12-23T00:53:06.023Z,5.50
2022-12-23T00:55:33.969Z,5.50
2022-12-23T00:58:01.863Z,5.50
2022-12-23T01:00:43.647Z,5.50
2022-12-23T01:03:35.553Z,5.40
2022-12-23T01:06:03.809Z,5.30
2022-12-23T01:08:32.976Z,5.20
2022-12-23T01:11:03.197Z,5.10
2022-12-23T01:13:31.084Z,5.00
2022-12-23T01:16:00.957Z,4.90
2022-12-23T01:18:29.018Z,4.80
2022-12-23T01:20:56.828Z,4.80
2022-12-23T01:23:24.625Z,4.80
2022-12-23T01:25:58.833Z,4.70
2022-12-23T01:28:26.697Z,4.70
2022-12-23T01:30:54.527Z,4.70
2022-12-23T01:33:22.361Z,4.60
2022-12-23T01:35:50.169Z,4.60
2022-12-23T01:38:18.061Z,4.60
2022-12-23T01:40:46.450Z,4.50
2022-12-23T01:43:17.301Z,4.50
2022-12-23T01:45:45.400Z,4.50
2022-12-23T01:48:15.290Z,4.50
2022-12-23T01:50:45.621Z,4.50
2022-12-23T01:53:15.495Z,4.40
2022-12-23T01:55:45.511Z,4.40
2022-12-23T01:58:14.081Z,4.40
2022-12-23T02:01:01.072Z,4.40
2022-12-23T02:03:44.326Z,4.40
2022-12-23T02:06:33.169Z,4.40
2022-12-23T02:09:19.172Z,4.40
2022-12-23T02:11:58.410Z,4.40
2022-12-23T02:14:49.540Z,4.40
2022-12-23T02:17:22.341Z,4.40
2022-12-23T02:20:02.223Z,4.40
2022-12-23T02:22:41.018Z,4.50
2022-12-23T02:25:32.627Z,4.40
2022-12-23T02:28:08.258Z,4.40
2022-12-23T02:30:43.606Z,4.40
2022-12-23T02:33:20.571Z,4.40
2022-12-23T02:35:56.195Z,4.30
2022-12-23T02:38:27.669Z,4.40
2022-12-23T02:40:59.893Z,4.40
2022-12-23T02:43:30.973Z,4.40
2022-12-23T02:46:04.630Z,4.50
2022-12-23T02:48:35.969Z,4.50
2022-12-23T02:51:05.056Z,4.50
2022-12-23T02:53:34.226Z,4.70
2022-12-23T02:56:03.602Z,4.80
2022-12-23T02:58:33.231Z,4.80
2022-12-23T03:01:03.342Z,4.90
2022-12-23T03:03:32.214Z,4.90
2022-12-23T03:06:00.116Z,4.90
2022-12-23T03:08:28.837Z,5.00
2022-12-23T03:11:02.905Z,5.00
2022-12-23T03:13:35.611Z,5.10
2022-12-23T03:16:10.284Z,5.30
2022-12-23T03:18:43.426Z,5.40
2022-12-23T03:21:13.629Z,5.50
2022-12-23T03:23:44.349Z,5.60
2022-12-23T03:26:15.250Z,5.70
2022-12-23T03:28:45.019Z,5.70
2022-12-23T03:31:16.616Z,5.70
2022-12-23T03:33:46.217Z,5.60
2022-12-23T03:36:16.305Z,5.50
2022-12-23T03:38:45.114Z,5.40
2022-12-23T03:41:15.083Z,5.30
2022-12-23T03:43:50.610Z,5.20
2022-12-23T03:46:21.640Z,5.20
2022-12-23T03:48:50.963Z,5.10
2022-12-23T03:51:21.066Z,5.00
2022-12-23T03:53:50.674Z,5.00
2022-12-23T03:56:20.406Z,4.90
2022-12-23T03:58:49.473Z,4.90
2022-12-23T04:01:19.388Z,4.90
2022-12-23T04:03:53.770Z,4.80
2022-12-23T04:06:22.554Z,4.80
2022-12-23T04:08:50.902Z,4.70
2022-12-23T04:11:18.689Z,4.70
2022-12-23T04:13:48.078Z,4.70
2022-12-23T04:16:16.126Z,4.70
2022-12-23T04:18:43.960Z,4.70
2022-12-23T04:21:13.152Z,4.70
2022-12-23T04:23:41.232Z,4.70
2022-12-23T04:26:09.044Z,4.60
2022-12-23T04:28:36.916Z,4.70
2022-12-23T04:31:04.880Z,4.80
2022-12-23T04:33:32.850Z,4.90
2022-12-23T04:36:00.847Z,5.00
2022-12-23T04:38:30.022Z,5.10
2022-12-23T04:40:57.835Z,5.30
2022-12-23T04:43:25.660Z,5.40
2022-12-23T04:45:53.524Z,5.50
2022-12-23T04:48:21.376Z,5.60
2022-12-23T04:50:49.177Z,5.70
2022-12-23T04:53:17.118Z,5.50
2022-12-23T04:55:50.470Z,5.50
2022-12-23T04:58:18.326Z,5.40
2022-12-23T05:00:46.206Z,5.30
2022-12-23T05:03:14.220Z,5.20
2022-12-23T05:05:43.905Z,5.20
2022-12-23T05:08:11.722Z,5.10
2022-12-23T05:10:39.557Z,5.10
2022-12-23T05:13:08.719Z,5.00
2022-12-23T05:15:36.534Z,5.00
2022-12-23T05:18:04.597Z,4.90
2022-12-23T05:20:32.418Z,4.80
2022-12-23T05:23:00.251Z,4.70
2022-12-23T05:25:28.086Z,4.60
2022-12-23T05:27:55.900Z,4.60
2022-12-23T05:30:25.079Z,4.50
2022-12-23T05:32:54.115Z,4.50
2022-12-23T05:35:22.009Z,4.50
2022-12-23T05:37:49.918Z,4.50
2022-12-23T05:40:23.282Z,4.50
2022-12-23T05:42:51.768Z,4.50
2022-12-23T05:45:19.751Z,4.50
2022-12-23T05:47:49.099Z,4.50
2022-12-23T05:50:16.896Z,4.50
2022-12-23T05:52:44.783Z,4.40
2022-12-23T05:55:12.608Z,4.30
2022-12-23T05:57:40.396Z,4.20
2022-12-23T06:00:10.587Z,4.20
2022-12-23T06:02:38.572Z,4.20
2022-12-23T06:05:08.547Z,4.10
2022-12-23T06:07:36.507Z,4.10
2022-12-23T06:10:04.496Z,4.00
2022-12-23T06:12:32.282Z,4.10
2022-12-23T06:15:00.140Z,4.10
2022-12-23T06:17:27.935Z,4.10
2022-12-23T06:19:55.756Z,4.10
2022-12-23T06:22:24.914Z,4.10
2022-12-23T06:24:52.754Z,4.10
2022-12-23T06:27:20.567Z,4.00
2022-12-23T06:29:48.765Z,3.90
2022-12-23T06:32:16.581Z,3.90
2022-12-23T06:34:44.406Z,3.90
2022-12-23T06:37:12.610Z,3.90
2022-12-23T06:39:41.786Z,3.90
2022-12-23T06:42:09.565Z,4.00
2022-12-23T06:44:37.700Z,4.00
2022-12-23T06:47:05.557Z,4.10
2022-12-23T06:49:33.355Z,4.20
2022-12-23T06:52:01.170Z,4.30
2022-12-23T06:54:28.961Z,4.50
2022-12-23T06:56:58.145Z,4.60
2022-12-23T06:59:25.989Z,4.60
2022-12-23T07:01:53.920Z,4.60
2022-12-23T07:04:21.947Z,4.60
2022-12-23T07:06:49.747Z,4.50
2022-12-23T07:09:17.665Z,4.50
2022-12-23T07:11:45.518Z,4.50
2022-12-23T07:14:14.669Z,4.50
2022-12-23T07:16:42.659Z,4.50
2022-12-23T07:19:10.578Z,4.60
2022-12-23T07:21:38.707Z,4.60
2022-12-23T07:24:07.003Z,4.60
2022-12-23T07:26:34.959Z,4.60
2022-12-23T07:29:04.293Z,4.60
2022-12-23T07:31:33.491Z,4.70
2022-12-23T07:34:01.402Z,4.70
2022-12-23T07:36:29.219Z,4.70
2022-12-23T07:38:57.075Z,4.70
2022-12-23T07:41:24.907Z,4.70
2022-12-23T07:43:52.721Z,4.80
2022-12-23T07:46:20.628Z,4.80
2022-12-23T07:48:49.909Z,4.80
2022-12-23T07:51:17.765Z,4.80
2022-12-23T07:53:48.867Z,4.90
2022-12-23T07:56:16.843Z,4.90
2022-12-23T07:58:44.877Z,4.90
2022-12-23T08:01:12.724Z,4.90
2022-12-23T08:03:40.647Z,4.90
2022-12-23T08:06:12.531Z,5.00
2022-12-23T08:08:41.020Z,5.10
2022-12-23T08:11:09.305Z,5.10
2022-12-23T08:13:38.551Z,5.30
2022-12-23T08:16:07.133Z,5.40
2022-12-23T08:18:35.721Z,5.60
2022-12-23T08:21:04.968Z,5.80
2022-12-23T08:23:34.482Z,6.10
2022-12-23T08:26:03.000Z,6.40
2022-12-23T08:28:31.406Z,6.60
2022-12-23T08:31:04.750Z,6.70
2022-12-23T08:33:33.192Z,6.80
2022-12-23T08:36:01.036Z,7.00
2022-12-23T08:38:28.903Z,7.20
2022-12-23T08:40:58.077Z,7.30
2022-12-23T08:43:30.250Z,7.40
2022-12-23T08:46:01.547Z,7.50
2022-12-23T08:48:29.461Z,7.50
2022-12-23T08:50:57.439Z,7.50
2022-12-23T08:53:25.264Z,7.60
2022-12-23T08:55:53.141Z,7.70
2022-12-23T08:58:22.296Z,7.80
2022-12-23T09:00:50.130Z,7.90
2022-12-23T09:03:18.042Z,8.00
2022-12-23T09:05:45.976Z,8.00
2022-12-23T09:08:13.833Z,8.00
2022-12-23T09:10:42.482Z,8.20
2022-12-23T09:13:10.712Z,8.30
2022-12-23T09:15:42.731Z,8.50
2022-12-23T09:18:10.728Z,8.60
2022-12-23T09:20:38.902Z,8.80
2022-12-23T09:23:07.322Z,9.00
2022-12-23T09:25:36.528Z,9.10
2022-12-23T09:28:04.416Z,9.20
2022-12-23T09:30:32.251Z,9.30
2022-12-23T09:33:01.457Z,9.40
2022-12-23T09:35:29.295Z,9.50
2022-12-23T09:37:57.156Z,9.60
2022-12-23T09:40:25.006Z,9.60
2022-12-23T09:42:58.521Z,9.60
2022-12-23T09:45:40.502Z,9.70
2022-12-23T09:48:13.065Z,9.70
2022-12-23T09:50:40.954Z,9.70
2022-12-23T09:53:12.769Z,9.80
2022-12-23T09:55:46.899Z,9.80
2022-12-23T09:58:19.032Z,9.80
2022-12-23T10:00:55.097Z,9.80
2022-12-23T10:03:27.246Z,9.80
2022-12-23T10:06:00.965Z,9.80
2022-12-23T10:08:31.083Z,9.90
2022-12-23T10:11:01.115Z,9.90
2022-12-23T10:13:31.054Z,10.10
2022-12-23T10:16:03.513Z,10.30
2022-12-23T10:18:39.252Z,10.60
2022-12-23T10:21:08.566Z,11.00
2022-12-23T10:23:37.978Z,11.60
2022-12-23T10:26:13.352Z,12.70
2022-12-23T10:28:41.154Z,13.80
2022-12-23T10:31:39.307Z,15.30
2022-12-23T10:34:06.113Z,16.70
2022-12-23T10:36:39.878Z,16.80
2022-12-23T10:39:12.735Z,16.70
2022-12-23T10:41:46.670Z,16.70
2022-12-23T10:44:25.429Z,16.00
2022-12-23T10:47:00.141Z,15.10
2022-12-23T10:49:33.350Z,16.00
2022-12-23T10:52:03.655Z,18.00
2022-12-23T10:54:33.373Z,17.40
2022-12-23T10:57:01.373Z,16.10
2022-12-23T10:59:30.043Z,15.30
2022-12-23T11:02:02.430Z,14.80
2022-12-23T11:04:34.552Z,14.40
2022-12-23T11:07:34.360Z,13.80
2022-12-23T11:09:52.200Z,13.60
2022-12-23T11:12:23.692Z,13.20
2022-12-23T11:14:52.511Z,13.00
2022-12-23T11:17:22.308Z,12.80
2022-12-23T11:20:06.477Z,12.70
2022-12-23T11:22:34.273Z,12.80
2022-12-23T11:25:18.349Z,13.40
2022-12-23T11:27:47.046Z,13.90
2022-12-23T11:30:18.650Z,13.50
2022-12-23T11:32:46.585Z,13.10
2022-12-23T11:35:24.890Z,12.80
2022-12-23T11:37:52.812Z,12.80
2022-12-23T11:40:25.502Z,12.80
2022-12-23T11:42:55.531Z,12.90
2022-12-23T11:45:25.018Z,12.70
2022-12-23T11:47:53.053Z,13.20
2022-12-23T11:50:33.482Z,14.20
2022-12-23T11:53:18.947Z,14.40
2022-12-23T11:55:49.219Z,14.40
2022-12-23T11:58:19.222Z,14.20
2022-12-23T12:00:55.480Z,13.70
2022-12-23T12:03:25.753Z,13.40
2022-12-23T12:05:56.808Z,13.30
2022-12-23T12:08:27.846Z,13.20
2022-12-23T12:11:01.203Z,13.40
2022-12-23T12:13:30.167Z,13.40
2022-12-23T12:16:02.390Z,13.10
2022-12-23T12:18:30.397Z,12.80
2022-12-23T12:21:01.606Z,12.60
2022-12-23T12:23:32.522Z,12.40
2022-12-23T12:26:02.432Z,12.30
2022-12-23T12:28:31.926Z,12.30
2022-12-23T12:31:03.550Z,12.50
2022-12-23T12:33:34.413Z,12.50
2022-12-23T12:36:13.830Z,12.70
2022-12-23T12:38:44.076Z,12.50
2022-12-23T12:41:15.568Z,12.50
2022-12-23T12:43:46.312Z,12.50
2022-12-23T12:46:21.218Z,12.50
2022-12-23T12:48:52.356Z,12.60
2022-12-23T12:51:25.776Z,12.30
2022-12-23T12:54:02.770Z,12.10
2022-12-23T12:56:34.947Z,11.90
2022-12-23T12:59:02.808Z,11.80
2022-12-23T13:01:40.817Z,11.70
2022-12-23T13:04:29.341Z,11.60
2022-12-23T13:07:03.057Z,11.50
2022-12-23T13:09:36.726Z,11.50
2022-12-23T13:12:07.376Z,11.50
2022-12-23T13:14:39.735Z,11.50
2022-12-23T13:17:09.485Z,11.60
2022-12-23T13:19:39.608Z,11.50
2022-12-23T13:22:09.823Z,11.50
2022-12-23T13:24:41.235Z,11.30
2022-12-23T13:27:11.943Z,11.30
2022-12-23T13:30:00.643Z,11.20
2022-12-23T13:32:37.188Z,11.20
2022-12-23T13:35:09.089Z,11.20
2022-12-23T13:37:43.593Z,11.10
2022-12-23T13:40:17.272Z,11.10
2022-12-23T13:42:49.190Z,11.10
2022-12-23T13:45:19.021Z,11.20
2022-12-23T13:47:51.601Z,11.10
2022-12-23T13:50:23.669Z,11.00
2022-12-23T13:52:58.710Z,10.90
2022-12-23T13:55:32.968Z,10.80
2022-12-23T13:58:04.480Z,10.80
2022-12-23T14:00:33.488Z,10.70
2022-12-23T14:03:18.687Z,10.60
2022-12-23T14:05:47.059Z,10.50
2022-12-23T14:08:26.080Z,10.50
2022-12-23T14:10:55.832Z,10.40
2022-12-23T14:13:24.831Z,10.30
2022-12-23T14:15:57.535Z,10.30
2022-12-23T14:18:34.273Z,10.30
2022-12-23T14:21:08.812Z,10.30
2022-12-23T14:23:42.993Z,10.30
2022-12-23T14:26:27.227Z,10.20
2022-12-23T14:29:00.010Z,10.10
2022-12-23T14:31:32.109Z,10.10
2022-12-23T14:34:07.768Z,10.00
2022-12-23T14:36:35.695Z,9.90
2022-12-23T14:39:22.305Z,9.90
2022-12-23T14:41:52.121Z,9.90
2022-12-23T14:44:22.585Z,9.90
2022-12-23T14:46:54.185Z,9.80
2022-12-23T14:49:38.970Z,9.70
2022-12-23T14:52:31.822Z,9.70
2022-12-23T14:55:33.145Z,9.60
2022-12-23T14:58:08.051Z,9.50
2022-12-23T15:00:45.673Z,9.50
2022-12-23T15:03:13.768Z,9.40
2022-12-23T15:05:41.765Z,9.40
2022-12-23T15:08:17.483Z,9.40
2022-12-23T15:10:45.455Z,9.30
2022-12-23T15:13:15.240Z,9.30
2022-12-23T15:15:55.924Z,9.40
2022-12-23T15:18:28.355Z,9.60
2022-12-23T15:20:59.741Z,9.70
2022-12-23T15:23:27.543Z,9.50
2022-12-23T15:25:57.053Z,9.40
2022-12-23T15:28:33.224Z,9.40
2022-12-23T15:31:02.003Z,9.30
2022-12-23T15:36:22.761Z,9.20
2022-12-23T15:38:50.638Z,9.10
2022-12-23T15:41:19.477Z,9.10
2022-12-23T15:43:48.685Z,9.20
2022-12-23T15:46:19.845Z,9.10
2022-12-23T15:48:51.472Z,9.10
2022-12-23T15:51:57.716Z,9.20
2022-12-23T15:54:19.299Z,9.20
2022-12-23T15:56:49.155Z,9.20
2022-12-23T15:59:21.117Z,9.20
2022-12-23T16:01:48.987Z,9.20
2022-12-23T16:04:19.532Z,9.20
2022-12-23T16:06:49.783Z,9.10
2022-12-23T16:09:26.617Z,9.10
2022-12-23T16:11:57.379Z,9.10
2022-12-23T16:14:37.201Z,9.00
2022-12-23T16:17:15.510Z,9.00
2022-12-23T16:19:44.917Z,8.90
2022-12-23T16:22:15.461Z,8.90
2022-12-23T16:24:47.431Z,8.80
2022-12-23T16:27:17.158Z,8.80
2022-12-23T16:29:48.513Z,8.80
2022-12-23T16:32:17.210Z,8.70
2022-12-23T16:34:46.866Z,8.60
2022-12-23T16:37:14.715Z,8.60
2022-12-23T16:39:42.576Z,8.50
2022-12-23T16:42:10.445Z,8.40
2022-12-23T16:44:38.327Z,8.40
2022-12-23T16:47:08.858Z,8.30
2022-12-23T16:49:37.280Z,8.20
2022-12-23T16:52:06.632Z,8.10
2022-12-23T16:54:34.457Z,8.00
2022-12-23T16:57:02.280Z,8.00
2022-12-23T16:59:30.111Z,7.90
2022-12-23T17:02:03.194Z,7.90
2022-12-23T17:04:33.025Z,7.90
2022-12-23T17:07:01.028Z,7.80
2022-12-23T17:09:28.879Z,7.80
2022-12-23T17:11:57.386Z,7.80
2022-12-23T17:14:26.494Z,7.80
2022-12-23T17:16:54.579Z,7.80
2022-12-23T17:19:28.874Z,7.70
2022-12-23T17:22:00.538Z,7.70
2022-12-23T17:24:28.407Z,7.60
2022-12-23T17:26:56.732Z,7.70
2022-12-23T17:29:24.695Z,7.70
2022-12-23T17:31:53.045Z,7.70
2022-12-23T17:34:22.033Z,7.70
2022-12-23T17:36:51.136Z,7.70
2022-12-23T17:39:20.721Z,7.70
2022-12-23T17:41:49.142Z,7.70
2022-12-23T17:44:17.605Z,7.70
2022-12-23T17:46:46.198Z,7.70
2022-12-23T17:49:14.133Z,7.80
2022-12-23T17:51:42.286Z,7.70
2022-12-23T17:54:17.591Z,7.60
2022-12-23T17:56:46.790Z,7.60
2022-12-23T17:59:14.604Z,7.60
2022-12-23T18:01:42.519Z,7.60
2022-12-23T18:04:10.360Z,7.50
2022-12-23T18:06:38.261Z,7.50
2022-12-23T18:09:06.105Z,7.50
2022-12-23T18:11:35.631Z,7.50
2022-12-23T18:14:04.871Z,7.50
2022-12-23T18:16:32.784Z,7.50
2022-12-23T18:19:00.665Z,7.40
2022-12-23T18:21:29.615Z,7.40
2022-12-23T18:23:58.759Z,7.40
2022-12-23T18:26:26.967Z,7.30
2022-12-23T18:28:54.848Z,7.30
2022-12-23T18:31:25.681Z,7.30
2022-12-23T18:33:54.087Z,7.30
2022-12-23T18:36:23.942Z,7.20
2022-12-23T18:38:52.816Z,7.20
2022-12-23T18:41:21.023Z,7.20
2022-12-23T18:43:49.078Z,7.20
2022-12-23T18:46:17.072Z,7.10
2022-12-23T18:48:46.348Z,7.10
2022-12-23T18:51:14.607Z,7.10
2022-12-23T18:53:43.548Z,7.20
2022-12-23T18:56:13.709Z,7.20
2022-12-23T18:58:41.544Z,7.30
2022-12-23T19:01:11.595Z,7.50
2022-12-23T19:03:39.500Z,7.80
2022-12-23T19:06:09.620Z,8.00
2022-12-23T19:08:38.339Z,8.20
2022-12-23T19:11:10.486Z,8.20
2022-12-23T19:13:38.370Z,8.20
2022-12-23T19:16:06.366Z,8.20
2022-12-23T19:18:34.268Z,8.20
2022-12-23T19:21:04.072Z,8.20
2022-12-23T19:23:33.276Z,8.20
2022-12-23T19:26:01.106Z,8.20
2022-12-23T19:28:28.947Z,8.20
2022-12-23T19:30:56.794Z,8.20
2022-12-23T19:33:24.641Z,8.10
2022-12-23T19:35:52.492Z,8.10
2022-12-23T19:38:20.507Z,8.20
2022-12-23T19:40:58.376Z,8.20
2022-12-23T19:43:26.229Z,8.30
2022-12-23T19:45:57.546Z,8.50
2022-12-23T19:48:25.390Z,8.60
2022-12-23T19:50:57.032Z,8.60
2022-12-23T19:53:25.102Z,8.70
2022-12-23T19:56:00.615Z,9.10
2022-12-23T19:58:29.262Z,9.20
2022-12-23T20:01:05.737Z,9.30
2022-12-23T20:03:33.617Z,9.40
2022-12-23T20:06:01.444Z,9.40
2022-12-23T20:08:29.240Z,9.40
2022-12-23T20:11:04.526Z,9.40
2022-12-23T20:13:32.569Z,9.30
2022-12-23T20:16:00.471Z,9.20
2022-12-23T20:18:28.311Z,9.20
2022-12-23T20:20:57.597Z,9.20
2022-12-23T20:23:25.601Z,9.20
2022-12-23T20:25:53.529Z,9.20
2022-12-23T20:28:22.936Z,9.40
2022-12-23T20:30:55.299Z,9.50
2022-12-23T20:33:23.165Z,9.60
2022-12-23T20:35:51.139Z,9.70
2022-12-23T20:38:18.966Z,9.80
2022-12-23T20:40:46.868Z,9.90
2022-12-23T20:43:15.464Z,9.90
2022-12-23T20:45:46.213Z,9.90
2022-12-23T20:48:14.048Z,10.00
2022-12-23T20:50:44.195Z,10.10
2022-12-23T20:53:12.009Z,10.10
2022-12-23T20:55:39.897Z,10.10
2022-12-23T20:58:21.627Z,10.10
2022-12-23T21:00:51.281Z,10.00
2022-12-23T21:03:19.095Z,10.10
2022-12-23T21:05:47.091Z,10.10
2022-12-23T21:08:14.897Z,10.20
2022-12-23T21:10:42.757Z,10.10
2022-12-23T21:13:10.648Z,10.00
2022-12-23T21:15:38.499Z,10.00
2022-12-23T21:18:07.727Z,10.00
2022-12-23T21:20:37.098Z,9.90
2022-12-23T21:23:05.074Z,10.10
2022-12-23T21:25:32.951Z,10.10
2022-12-23T21:28:00.823Z,10.10
2022-12-23T21:30:28.641Z,10.20
2022-12-23T21:33:00.116Z,10.30
2022-12-23T21:35:29.294Z,10.40
2022-12-23T21:37:57.125Z,10.50
2022-12-23T21:40:25.255Z,10.60
2022-12-23T21:42:53.106Z,10.70
2022-12-23T21:45:20.925Z,10.80
2022-12-23T21:47:48.725Z,10.90
2022-12-23T21:50:16.648Z,11.00
2022-12-23T21:52:45.836Z,11.00
2022-12-23T21:55:15.914Z,11.00
2022-12-23T21:57:43.689Z,11.10
2022-12-23T22:00:12.144Z,11.00
2022-12-23T22:02:40.562Z,11.10
2022-12-23T22:05:08.945Z,11.20
2022-12-23T22:07:36.803Z,11.20
2022-12-23T22:10:06.561Z,11.10
2022-12-23T22:12:34.356Z,11.20
2022-12-23T22:15:06.372Z,11.20
2022-12-23T22:17:39.110Z,11.20
2022-12-23T22:20:07.762Z,11.20
2022-12-23T22:22:35.584Z,11.30
2022-12-23T22:25:03.388Z,11.30
2022-12-23T22:27:32.557Z,11.30
2022-12-23T22:30:00.371Z,11.30
2022-12-23T22:32:28.222Z,11.40
2022-12-23T22:34:56.040Z,11.40
2022-12-23T22:37:23.856Z,11.40
2022-12-23T22:39:51.696Z,11.40
2022-12-23T22:42:19.553Z,11.30
2022-12-23T22:44:48.735Z,11.40
2022-12-23T22:47:16.611Z,11.40
2022-12-23T22:49:44.442Z,11.30
2022-12-23T22:52:12.307Z,11.20
2022-12-23T22:54:40.588Z,11.30
2022-12-23T22:57:09.471Z,11.30
2022-12-23T22:59:37.294Z,11.30
2022-12-23T23:02:06.568Z,11.30
2022-12-23T23:04:34.476Z,11.30
2022-12-23T23:07:02.260Z,11.20
2022-12-23T23:09:30.110Z,11.20
2022-12-23T23:11:57.917Z,11.20
2022-12-23T23:14:25.937Z,11.30
2022-12-23T23:16:53.830Z,11.20
2022-12-23T23:19:23.148Z,11.30
2022-12-23T23:21:50.978Z,11.30
2022-12-23T23:24:18.834Z,11.20
2022-12-23T23:26:46.662Z,11.20
2022-12-23T23:29:14.556Z,11.10
2022-12-23T23:31:43.970Z,11.10
2022-12-23T23:34:12.459Z,11.00
2022-12-23T23:36:41.777Z,11.00
2022-12-23T23:39:10.054Z,10.90
2022-12-23T23:41:37.908Z,10.80
2022-12-23T23:44:05.836Z,10.70
2022-12-23T23:46:34.137Z,10.70
2022-12-23T23:49:02.121Z,10.60
2022-12-23T23:51:30.065Z,10.50
2022-12-23T23:53:59.247Z,10.40
2022-12-23T23:56:31.111Z,10.40
2022-12-23T23:59:01.753Z,10.40
